Time;durP1;ratioP1;P1;durP2;ratioP2;P2;SDS_P1;SDS_P2;PMS_P1;PMS_P2;Temp;Humidity;BMP_temperature;BMP_pressure;BME280_temperature;BME280_humidity;BME280_pressure;Samples;Min_cycle;Max_cycle;Signal;HPM_P1;HPM_P2
2022/11/26 00:01:22;;;;;;;89.40;81.00;;;;;;;2.91;100.00;98368.38;104894;1333;22759;-81
2022/11/26 00:03:52;;;;;;;95.20;85.60;;;;;;;2.91;100.00;98369.78;104860;1333;22699;-82
2022/11/26 00:06:39;;;;;;;98.00;88.00;;;;;;;2.89;100.00;98368.04;104969;1323;22136;-81
2022/11/26 00:09:14;;;;;;;97.40;87.40;;;;;;;2.86;100.00;98371.76;105203;1321;22236;-81
2022/11/26 00:11:42;;;;;;;78.00;70.90;;;;;;;2.88;100.00;98367.36;105222;1320;23056;-82
2022/11/26 00:14:15;;;;;;;87.20;78.90;;;;;;;2.90;100.00;98369.45;104823;1331;23528;-81
2022/11/26 00:16:43;;;;;;;87.80;79.30;;;;;;;2.94;100.00;98369.07;104622;1329;22256;-81
2022/11/26 00:19:11;;;;;;;83.30;75.60;;;;;;;2.95;100.00;98373.52;104899;1321;22172;-81
2022/11/26 00:21:41;;;;;;;92.20;83.40;;;;;;;2.92;100.00;98373.72;105198;1310;22191;-81
2022/11/26 00:24:25;;;;;;;90.40;81.80;;;;;;;2.86;100.00;98374.48;105233;1321;22871;-82
2022/11/26 00:26:55;;;;;;;86.20;77.70;;;;;;;2.86;100.00;98375.68;105215;1311;22931;-82
2022/11/26 00:29:23;;;;;;;85.40;77.70;;;;;;;2.86;100.00;98378.09;104680;1330;22281;-81
2022/11/26 00:31:51;;;;;;;81.10;73.70;;;;;;;2.86;100.00;98376.28;104900;1321;22915;-82
2022/11/26 00:34:19;;;;;;;84.00;76.40;;;;;;;2.87;100.00;98382.24;104887;1326;22208;-81
2022/11/26 00:36:47;;;;;;;91.60;82.60;;;;;;;2.81;100.00;98380.89;105253;1318;22153;-82
2022/11/26 00:39:20;;;;;;;93.60;84.90;;;;;;;2.70;100.00;98386.98;104766;1333;22751;-82
2022/11/26 00:41:51;;;;;;;98.40;89.00;;;;;;;2.68;100.00;98389.27;104834;1329;22921;-82
2022/11/26 00:44:21;;;;;;;86.50;77.60;;;;;;;2.75;100.00;98392.16;104840;1330;22245;-82
2022/11/26 00:46:50;;;;;;;80.70;73.40;;;;;;;2.78;100.00;98394.36;105275;1320;22808;-82
2022/11/26 00:49:19;;;;;;;82.50;75.30;;;;;;;2.80;100.00;98396.10;104742;1332;22265;-81
2022/11/26 00:51:48;;;;;;;82.50;75.20;;;;;;;2.77;100.00;98399.77;104734;1333;22111;-82
2022/11/26 00:54:17;;;;;;;85.10;77.50;;;;;;;2.78;100.00;98401.02;104976;1314;22720;-82
2022/11/26 00:56:47;;;;;;;91.90;83.30;;;;;;;2.79;100.00;98405.51;104752;1332;22103;-82
2022/11/26 00:59:18;;;;;;;82.80;75.20;;;;;;;2.76;100.00;98403.48;104848;1333;22725;-82
2022/11/26 01:01:48;;;;;;;75.30;68.20;;;;;;;2.80;100.00;98407.70;105002;1314;22089;-82
2022/11/26 01:04:16;;;;;;;77.20;70.10;;;;;;;2.84;100.00;98414.40;104626;1336;23006;-82
2022/11/26 01:06:45;;;;;;;80.30;73.10;;;;;;;2.94;100.00;98413.80;105031;1306;22844;-82
2022/11/26 01:09:19;;;;;;;78.80;71.20;;;;;;;3.02;100.00;98416.45;104984;1323;22228;-82
2022/11/26 01:11:47;;;;;;;;;;;;;;;3.04;100.00;98420.92;104938;1303;23091;-82
2022/11/26 01:14:21;;;;;;;82.70;74.50;;;;;;;3.05;100.00;98421.73;104992;1314;22061;-81
2022/11/26 01:16:51;;;;;;;74.80;67.60;;;;;;;3.12;100.00;98424.32;104742;1330;22832;-84
2022/11/26 01:19:19;;;;;;;80.40;72.50;;;;;;;3.22;100.00;98424.55;104755;1330;22170;-83
2022/11/26 01:21:48;;;;;;;76.00;68.80;;;;;;;3.32;100.00;98422.23;104632;1330;22088;-83
2022/11/26 01:24:15;;;;;;;83.80;75.30;;;;;;;3.38;100.00;98420.20;104755;1328;22238;-81
2022/11/26 01:26:43;;;;;;;84.40;76.20;;;;;;;3.45;100.00;98419.59;104966;1321;22199;-81
2022/11/26 01:29:18;;;;;;;86.60;77.90;;;;;;;3.48;100.00;98421.23;104822;1330;23212;-82
2022/11/26 01:31:46;;;;;;;79.20;71.20;;;;;;;3.50;100.00;98425.05;104934;1323;22245;-81
2022/11/26 01:34:14;;;;;;;79.90;71.40;;;;;;;3.56;100.00;98429.70;105057;1320;22204;-81
2022/11/26 01:36:43;;;;;;;77.00;69.20;;;;;;;3.64;100.00;98434.41;105237;1320;22179;-82
2022/11/26 01:39:20;;;;;;;83.40;74.80;;;;;;;3.68;100.00;98437.84;104819;1330;23032;-82
2022/11/26 01:42:01;;;;;;;86.40;77.70;;;;;;;3.71;100.00;98439.08;104609;1330;22295;-82
2022/11/26 01:44:31;;;;;;;96.60;84.20;;;;;;;3.74;100.00;98435.66;104921;1314;22046;-85
2022/11/26 01:47:01;;;;;;;84.50;75.90;;;;;;;3.74;100.00;98438.64;104705;1330;22837;-83
2022/11/26 01:49:32;;;;;;;84.10;75.80;;;;;;;3.77;100.00;98438.16;104686;1330;22191;-82
2022/11/26 01:52:06;;;;;;;80.70;72.30;;;;;;;3.77;100.00;98437.48;104895;1314;22162;-81
2022/11/26 01:54:36;;;;;;;86.80;77.50;;;;;;;3.81;100.00;98433.75;105216;1320;22190;-82
2022/11/26 01:57:19;;;;;;;84.10;75.70;;;;;;;3.89;100.00;98437.45;104824;1326;22210;-82
2022/11/26 01:59:51;;;;;;;90.50;80.90;;;;;;;3.91;100.00;98440.45;104516;1329;22797;-81
2022/11/26 02:02:24;;;;;;;86.10;76.80;;;;;;;3.90;100.00;98437.02;104824;1325;22892;-82
2022/11/26 02:05:26;;;;;;;81.70;73.20;;;;;;;3.89;100.00;98440.27;104869;1321;22182;-82
2022/11/26 02:07:56;;;;;;;79.60;71.80;;;;;;;3.90;100.00;98441.09;104579;1330;22153;-81
2022/11/26 02:10:24;;;;;;;83.40;74.50;;;;;;;3.91;100.00;98443.44;104581;1330;22194;-81
2022/11/26 02:12:52;;;;;;;83.30;75.00;;;;;;;3.92;100.00;98444.64;104954;1320;22179;-82
2022/11/26 02:15:25;;;;;;;84.00;75.10;;;;;;;3.93;100.00;98443.86;105241;1308;22868;-81
2022/11/26 02:18:07;;;;;;;89.10;79.60;;;;;;;3.94;100.00;98443.55;104824;1330;22206;-80
2022/11/26 02:20:54;;;;;;;84.90;76.20;;;;;;;3.95;100.00;98442.45;104665;1330;22193;-82
2022/11/26 02:23:33;;;;;;;81.80;72.70;;;;;;;3.99;100.00;98441.44;104729;1330;22250;-82
2022/11/26 02:26:19;;;;;;;79.20;71.50;;;;;;;4.02;100.00;98441.65;104985;1318;22232;-82
2022/11/26 02:29:12;;;;;;;81.60;73.20;;;;;;;4.03;100.00;98438.05;105132;1315;22093;-82
2022/11/26 02:32:07;;;;;;;84.80;76.40;;;;;;;4.02;100.00;98435.89;104817;1330;22233;-83
2022/11/26 02:34:52;;;;;;;86.60;77.90;;;;;;;4.00;100.00;98442.04;104435;1330;22078;-82
2022/11/26 02:37:46;;;;;;;80.40;72.50;;;;;;;3.96;100.00;98442.05;104759;1330;22267;-82
2022/11/26 02:40:14;;;;;;;81.90;73.40;;;;;;;3.94;100.00;98442.42;104742;1330;22224;-82
2022/11/26 02:42:42;;;;;;;82.20;73.90;;;;;;;3.92;100.00;98441.82;104821;1328;22890;-82
2022/11/26 02:45:13;;;;;;;83.30;74.40;;;;;;;3.92;100.00;98442.27;104721;1325;22211;-82
2022/11/26 02:47:44;;;;;;;86.40;77.80;;;;;;;3.89;100.00;98440.91;104735;1330;22234;-82
2022/11/26 02:50:19;;;;;;;83.60;75.30;;;;;;;3.83;100.00;98441.30;105214;1308;22203;-82
2022/11/26 02:52:48;;;;;;;;;;;;;;;3.79;100.00;98444.15;104731;1330;22966;-82
2022/11/26 02:55:21;;;;;;;80.10;72.30;;;;;;;3.74;100.00;98443.59;104683;1330;23270;-83
2022/11/26 02:57:51;;;;;;;78.30;70.70;;;;;;;3.74;100.00;98442.96;105133;1315;23412;-82
2022/11/26 03:00:20;;;;;;;83.30;75.10;;;;;;;3.73;100.00;98444.12;104705;1330;22266;-82
2022/11/26 03:03:03;;;;;;;77.60;70.00;;;;;;;3.71;100.00;98447.81;104903;1320;22175;-82
2022/11/26 03:05:34;;;;;;;75.30;68.10;;;;;;;3.62;100.00;98442.81;104840;1329;22204;-83
2022/11/26 03:08:05;;;;;;;86.00;77.00;;;;;;;3.50;100.00;98444.77;104903;1324;23657;-83
2022/11/26 03:10:33;;;;;;;83.80;75.60;;;;;;;3.42;100.00;98446.13;104754;1330;22164;-83
2022/11/26 03:13:01;;;;;;;76.20;68.30;;;;;;;3.39;100.00;98446.28;104949;1322;22206;-82
2022/11/26 03:15:29;;;;;;;74.50;67.00;;;;;;;3.33;100.00;98448.63;104737;1330;22521;-83
2022/11/26 03:17:57;;;;;;;79.00;71.00;;;;;;;3.31;100.00;98449.21;104738;1330;22297;-82
2022/11/26 03:20:25;;;;;;;80.00;72.40;;;;;;;3.27;100.00;98454.09;104833;1330;22239;-82
2022/11/26 03:22:53;;;;;;;85.10;76.90;;;;;;;3.22;100.00;98453.11;104978;1320;22236;-79
2022/11/26 03:25:21;;;;;;;79.30;71.30;;;;;;;3.19;100.00;98453.58;104740;1330;22367;-82
2022/11/26 03:27:49;;;;;;;78.80;70.60;;;;;;;3.16;100.00;98452.67;104829;1328;22205;-82
2022/11/26 03:30:17;;;;;;;74.70;67.80;;;;;;;3.17;100.00;98454.17;104776;1328;22838;-82
2022/11/26 03:32:45;;;;;;;75.60;68.30;;;;;;;3.17;100.00;98458.39;105209;1314;22190;-82
2022/11/26 03:35:13;;;;;;;78.60;71.30;;;;;;;3.13;100.00;98461.50;104829;1330;22211;-82
2022/11/26 03:37:41;;;;;;;85.80;76.80;;;;;;;3.08;100.00;98459.34;105230;1317;23012;-82
2022/11/26 03:40:09;;;;;;;78.90;71.20;;;;;;;3.04;100.00;98462.29;105230;1312;22812;-82
2022/11/26 03:42:37;;;;;;;74.00;66.40;;;;;;;3.01;100.00;98461.54;105214;1320;22200;-82
2022/11/26 03:45:05;;;;;;;76.50;68.50;;;;;;;3.02;100.00;98461.50;104822;1329;22191;-82
2022/11/26 03:47:33;;;;;;;71.10;63.90;;;;;;;3.07;100.00;98462.77;104715;1330;22198;-82
2022/11/26 03:50:02;;;;;;;70.70;63.70;;;;;;;3.09;100.00;98461.00;104961;1318;22737;-82
2022/11/26 03:52:30;;;;;;;77.90;70.30;;;;;;;3.10;100.00;98464.21;105247;1315;22803;-82
2022/11/26 03:54:58;;;;;;;70.20;63.10;;;;;;;3.10;100.00;98463.63;104932;1308;22214;-82
2022/11/26 03:57:26;;;;;;;70.90;64.00;;;;;;;3.10;100.00;98473.96;104833;1330;22273;-82
2022/11/26 03:59:54;;;;;;;68.60;62.00;;;;;;;3.09;100.00;98472.92;105210;1318;22776;-82
2022/11/26 04:02:22;;;;;;;70.90;63.80;;;;;;;3.09;100.00;98471.86;105211;1308;22782;-83
2022/11/26 04:04:50;;;;;;;72.20;64.60;;;;;;;3.10;100.00;98471.78;104791;1329;22213;-81
2022/11/26 04:07:18;;;;;;;74.60;66.70;;;;;;;3.11;100.00;98476.97;105194;1320;22853;-82
2022/11/26 04:09:46;;;;;;;79.20;71.60;;;;;;;3.11;100.00;98478.35;105218;1319;22209;-82
2022/11/26 04:12:14;;;;;;;78.10;69.90;;;;;;;3.13;100.00;98478.77;105236;1314;22190;-82
2022/11/26 04:14:42;;;;;;;75.90;68.50;;;;;;;3.17;100.00;98477.78;105330;1320;22801;-81
2022/11/26 04:17:10;;;;;;;73.20;65.70;;;;;;;3.21;100.00;98479.02;104789;1330;22211;-83
2022/11/26 04:19:38;;;;;;;69.30;61.30;;;;;;;3.28;100.00;98485.86;104602;1330;23002;-82
2022/11/26 04:22:06;;;;;;;78.30;56.20;;;;;;;3.31;100.00;98488.04;104959;1320;22760;-82
2022/11/26 04:24:34;;;;;;;81.50;67.50;;;;;;;3.24;100.00;98492.61;104861;1322;22254;-84
2022/11/26 04:27:03;;;;;;;91.10;62.80;;;;;;;3.14;100.00;98496.20;104729;1323;22221;-81
2022/11/26 04:29:31;;;;;;;70.90;60.10;;;;;;;3.09;100.00;98500.02;104729;1328;23704;-82
2022/11/26 04:31:59;;;;;;;80.60;63.60;;;;;;;3.06;100.00;98503.55;104649;1330;22304;-81
2022/11/26 04:34:27;;;;;;;77.20;68.60;;;;;;;3.04;100.00;98503.86;105028;1320;22276;-82
2022/11/26 04:36:55;;;;;;;125.60;68.00;;;;;;;3.02;100.00;98507.23;104892;1321;22149;-82
2022/11/26 04:39:23;;;;;;;107.70;69.80;;;;;;;2.99;100.00;98507.23;104743;1330;22134;-82
2022/11/26 04:41:51;;;;;;;75.30;67.60;;;;;;;2.97;100.00;98508.88;105264;1320;22157;-82
2022/11/26 04:44:19;;;;;;;105.50;63.20;;;;;;;2.98;100.00;98512.46;104867;1322;22161;-82
2022/11/26 04:46:46;;;;;;;76.10;63.00;;;;;;;3.02;100.00;98516.61;104548;1330;22141;-82
2022/11/26 04:49:14;;;;;;;99.20;66.80;;;;;;;3.03;100.00;98519.77;104728;1325;22230;-82
2022/11/26 04:51:42;;;;;;;110.70;66.50;;;;;;;2.91;100.00;98526.86;104718;1330;22246;-81
2022/11/26 04:54:10;;;;;;;88.20;63.10;;;;;;;2.90;100.00;98525.84;104621;1329;22172;-82
2022/11/26 04:56:40;;;;;;;66.20;53.40;;;;;;;2.90;100.00;98531.05;104834;1330;22297;-82
2022/11/26 04:59:08;;;;;;;70.80;59.70;;;;;;;2.92;100.00;98531.89;104983;1320;22097;-82
2022/11/26 05:01:36;;;;;;;109.40;60.90;;;;;;;2.89;100.00;98531.24;104596;1323;22167;-82
2022/11/26 05:04:04;;;;;;;63.20;55.40;;;;;;;2.88;100.00;98532.54;104762;1315;22842;-82
2022/11/26 05:06:32;;;;;;;93.80;62.40;;;;;;;2.90;100.00;98534.56;104830;1330;22230;-82
2022/11/26 05:09:00;;;;;;;67.10;60.20;;;;;;;2.88;100.00;98531.90;105240;1320;22168;-82
2022/11/26 05:11:28;;;;;;;84.60;57.10;;;;;;;2.87;100.00;98536.63;105223;1301;22087;-82
2022/11/26 05:13:56;;;;;;;70.90;58.40;;;;;;;2.90;100.00;98535.95;105199;1319;22767;-82
2022/11/26 05:16:24;;;;;;;79.70;59.40;;;;;;;2.96;100.00;98537.92;105225;1319;23001;-82
2022/11/26 05:18:52;;;;;;;146.70;61.80;;;;;;;2.95;100.00;98536.79;104747;1318;22665;-81
2022/11/26 05:21:20;;;;;;;130.90;57.40;;;;;;;2.93;100.00;98536.59;104708;1321;22233;-81
2022/11/26 05:23:48;;;;;;;140.10;56.50;;;;;;;2.92;100.00;98539.29;104747;1323;22136;-82
2022/11/26 05:26:16;;;;;;;121.40;56.60;;;;;;;2.92;100.00;98540.63;104842;1329;22292;-81
2022/11/26 05:28:44;;;;;;;98.00;52.60;;;;;;;2.94;100.00;98540.45;104818;1329;22107;-82
2022/11/26 05:31:11;;;;;;;75.00;50.40;;;;;;;2.97;100.00;98544.86;105225;1315;22327;-80
2022/11/26 05:33:40;;;;;;;86.30;54.80;;;;;;;2.95;100.00;98543.23;104829;1330;22154;-81
2022/11/26 05:36:08;;;;;;;125.60;56.70;;;;;;;2.93;100.00;98544.86;104738;1330;22880;-81
2022/11/26 05:38:35;;;;;;;105.40;54.40;;;;;;;2.91;100.00;98540.27;104863;1328;22951;-81
2022/11/26 05:41:03;;;;;;;66.20;52.90;;;;;;;2.92;100.00;98540.19;104845;1322;22159;-81
2022/11/26 05:43:31;;;;;;;63.90;55.70;;;;;;;2.98;100.00;98538.55;105241;1320;22252;-81
2022/11/26 05:46:07;;;;;;;81.20;59.30;;;;;;;3.04;100.00;98540.92;104814;1322;22214;-81
2022/11/26 05:48:35;;;;;;;146.80;58.10;;;;;;;3.07;100.00;98545.79;104613;1330;22081;-81
2022/11/26 05:51:03;;;;;;;79.90;60.20;;;;;;;3.12;100.00;98543.28;104834;1330;22264;-82
2022/11/26 05:53:31;;;;;;;64.60;57.80;;;;;;;3.13;100.00;98540.05;104828;1329;22290;-81
2022/11/26 05:55:59;;;;;;;68.10;56.20;;;;;;;3.17;100.00;98547.70;105214;1319;22264;-82
2022/11/26 05:58:27;;;;;;;60.10;54.00;;;;;;;3.22;100.00;98545.71;104712;1330;22275;-81
2022/11/26 06:00:55;;;;;;;76.40;56.30;;;;;;;3.27;100.00;98551.89;104926;1320;22296;-81
2022/11/26 06:03:23;;;;;;;103.10;54.90;;;;;;;3.29;100.00;98547.78;104870;1329;22281;-81
2022/11/26 06:05:51;;;;;;;112.00;58.10;;;;;;;3.27;100.00;98546.64;105256;1320;22182;-81
2022/11/26 06:08:19;;;;;;;139.30;59.40;;;;;;;3.25;100.00;98552.34;104859;1329;22201;-81
2022/11/26 06:10:47;;;;;;;117.30;61.70;;;;;;;3.23;100.00;98557.95;105264;1315;22902;-81
2022/11/26 06:13:15;;;;;;;76.80;62.80;;;;;;;3.16;100.00;98566.55;104952;1314;22078;-81
2022/11/26 06:15:44;;;;;;;93.50;62.00;;;;;;;3.14;100.00;98570.27;104717;1330;22261;-81
2022/11/26 06:18:12;;;;;;;80.20;58.00;;;;;;;3.09;100.00;98577.47;104593;1330;22298;-81
2022/11/26 06:20:40;;;;;;;94.10;58.10;;;;;;;3.04;100.00;98581.57;104823;1330;22073;-81
2022/11/26 06:23:08;;;;;;;64.20;57.10;;;;;;;2.99;100.00;98582.07;104852;1330;22232;-81
2022/11/26 06:25:39;;;;;;;66.00;59.30;;;;;;;2.95;100.00;98577.95;104850;1330;22214;-80
2022/11/26 06:28:07;;;;;;;60.00;53.70;;;;;;;2.97;100.00;98588.27;104972;1312;22923;-81
2022/11/26 06:30:35;;;;;;;60.00;54.00;;;;;;;3.00;100.00;98590.45;104686;1330;22291;-82
2022/11/26 06:33:03;;;;;;;58.30;52.50;;;;;;;3.00;100.00;98596.34;105208;1320;22275;-82
2022/11/26 06:35:31;;;;;;;57.10;51.80;;;;;;;3.06;100.00;98599.65;104850;1329;22171;-83
2022/11/26 06:37:59;;;;;;;59.60;54.10;;;;;;;3.07;100.00;98606.98;104745;1329;22217;-82
2022/11/26 06:40:27;;;;;;;66.90;60.60;;;;;;;3.04;100.00;98608.02;104892;1330;22142;-82
2022/11/26 06:42:55;;;;;;;60.40;54.70;;;;;;;3.01;100.00;98607.96;104895;1330;22233;-82
2022/11/26 06:45:23;;;;;;;57.40;52.00;;;;;;;3.01;100.00;98609.30;104968;1315;22955;-81
2022/11/26 06:47:51;;;;;;;57.40;51.80;;;;;;;3.03;100.00;98609.06;104840;1329;22238;-81
2022/11/26 06:50:22;;;;;;;57.10;51.80;;;;;;;3.04;100.00;98611.42;104753;1330;22102;-81
2022/11/26 06:52:53;;;;;;;57.90;52.50;;;;;;;3.08;100.00;98609.60;104753;1330;22192;-81
2022/11/26 06:55:21;;;;;;;64.20;58.10;;;;;;;3.12;100.00;98612.73;104778;1329;22925;-81
2022/11/26 06:57:50;;;;;;;58.70;53.10;;;;;;;3.11;100.00;98615.20;104621;1330;22202;-81
2022/11/26 07:00:19;;;;;;;59.30;53.80;;;;;;;3.14;100.00;98616.12;104719;1330;23403;-81
2022/11/26 07:02:47;;;;;;;57.50;51.60;;;;;;;3.15;100.00;98618.93;104695;1330;22256;-81
2022/11/26 07:05:15;;;;;;;60.20;54.40;;;;;;;3.22;100.00;98620.65;104802;1322;22205;-81
2022/11/26 07:07:43;;;;;;;62.20;56.10;;;;;;;3.25;100.00;98626.74;104691;1329;22251;-81
2022/11/26 07:10:11;;;;;;;68.40;62.00;;;;;;;3.29;100.00;98626.14;104540;1330;22224;-81
2022/11/26 07:12:39;;;;;;;64.50;57.80;;;;;;;3.35;100.00;98627.92;104972;1308;22903;-81
2022/11/26 07:15:07;;;;;;;64.40;58.60;;;;;;;3.43;100.00;98626.55;104737;1330;22088;-81
2022/11/26 07:17:35;;;;;;;82.80;73.20;;;;;;;3.50;100.00;98628.25;104966;1305;22283;-81
2022/11/26 07:20:04;;;;;;;73.50;66.60;;;;;;;3.54;100.00;98629.34;104554;1322;174140;-81
2022/11/26 07:22:34;;;;;;;76.00;68.70;;;;;;;3.61;100.00;98632.31;104686;1330;22130;-81
2022/11/26 07:25:02;;;;;;;78.80;70.60;;;;;;;3.66;100.00;98634.29;104902;1319;22285;-81
2022/11/26 07:27:34;;;;;;;72.60;64.70;;;;;;;3.68;100.00;98640.76;104867;1330;22223;-81
2022/11/26 07:30:04;;;;;;;67.50;61.00;;;;;;;3.69;100.00;98642.02;104748;1329;22225;-81
2022/11/26 07:32:32;;;;;;;69.70;62.60;;;;;;;3.72;100.00;98640.80;104710;1330;22909;-82
2022/11/26 07:35:04;;;;;;;70.20;62.50;;;;;;;3.67;100.00;98647.95;104730;1329;22249;-81
2022/11/26 07:37:32;;;;;;;68.50;61.80;;;;;;;3.58;100.00;98648.77;104605;1329;22274;-82
2022/11/26 07:40:00;;;;;;;65.00;58.50;;;;;;;3.51;100.00;98655.44;104954;1320;22205;-82
2022/11/26 07:42:31;;;;;;;66.10;59.50;;;;;;;3.44;100.00;98655.77;104730;1330;22274;-82
2022/11/26 07:44:59;;;;;;;66.20;59.80;;;;;;;3.38;100.00;98655.33;104601;1330;22206;-82
2022/11/26 07:47:26;;;;;;;77.60;69.90;;;;;;;3.40;100.00;98656.42;104815;1330;22938;-82
2022/11/26 07:49:54;;;;;;;169.40;108.40;;;;;;;3.33;100.00;98659.70;104889;1320;22251;-82
2022/11/26 07:52:22;;;;;;;156.50;99.60;;;;;;;3.25;100.00;98661.00;104824;1330;22320;-82
2022/11/26 07:54:50;;;;;;;78.10;69.40;;;;;;;3.22;100.00;98657.94;104824;1330;22251;-82
2022/11/26 07:57:20;;;;;;;135.40;93.60;;;;;;;3.21;100.00;98655.73;104606;1330;22107;-82
2022/11/26 07:59:48;;;;;;;82.30;65.80;;;;;;;3.27;100.00;98662.70;104894;1311;22119;-82
2022/11/26 08:02:16;;;;;;;119.60;75.40;;;;;;;3.25;100.00;98667.13;105226;1305;22171;-82
2022/11/26 08:04:44;;;;;;;93.90;74.40;;;;;;;3.25;100.00;98668.40;104799;1329;22219;-82
2022/11/26 08:07:12;;;;;;;72.20;65.00;;;;;;;3.24;100.00;98676.02;104714;1330;22216;-82
2022/11/26 08:09:49;;;;;;;77.20;69.40;;;;;;;3.26;100.00;98677.86;104984;1315;23491;-82
2022/11/26 08:12:17;;;;;;;84.60;76.10;;;;;;;3.28;100.00;98680.25;104767;1330;22241;-82
2022/11/26 08:14:45;;;;;;;80.00;71.60;;;;;;;3.27;100.00;98681.34;104851;1322;22658;-82
2022/11/26 08:17:13;;;;;;;77.00;69.60;;;;;;;3.26;100.00;98683.40;104862;1324;22880;-82
2022/11/26 08:19:41;;;;;;;76.90;69.20;;;;;;;3.28;100.00;98686.33;104841;1330;22112;-82
2022/11/26 08:22:09;;;;;;;75.30;67.80;;;;;;;3.30;100.00;98690.90;104856;1330;22286;-82
2022/11/26 08:24:38;;;;;;;78.30;70.30;;;;;;;3.32;100.00;98693.19;104963;1320;22240;-82
2022/11/26 08:27:07;;;;;;;80.00;72.10;;;;;;;3.36;100.00;98695.63;104816;1330;22207;-82
2022/11/26 08:29:35;;;;;;;75.60;68.00;;;;;;;3.37;100.00;98698.77;104693;1321;22201;-82
2022/11/26 08:32:03;;;;;;;77.00;69.50;;;;;;;3.39;100.00;98695.83;105244;1305;22289;-82
2022/11/26 08:34:32;;;;;;;76.80;68.90;;;;;;;3.40;100.00;98695.59;105043;1320;22216;-82
2022/11/26 08:37:00;;;;;;;79.80;71.80;;;;;;;3.41;100.00;98694.52;104834;1328;22205;-83
2022/11/26 08:39:28;;;;;;;81.70;73.60;;;;;;;3.45;100.00;98696.77;105227;1305;23106;-82
2022/11/26 08:41:57;;;;;;;79.30;71.70;;;;;;;3.46;100.00;98696.60;104815;1329;22281;-82
2022/11/26 08:44:24;;;;;;;78.10;69.80;;;;;;;3.51;100.00;98699.21;104724;1322;22187;-82
2022/11/26 08:46:52;;;;;;;81.80;73.60;;;;;;;3.54;100.00;98699.11;104964;1309;22264;-82
2022/11/26 08:49:20;;;;;;;90.50;80.70;;;;;;;3.59;100.00;98698.95;104752;1330;22123;-82
2022/11/26 08:51:48;;;;;;;99.10;88.60;;;;;;;3.60;100.00;98698.11;104695;1330;22245;-81
2022/11/26 08:54:16;;;;;;;97.90;84.90;;;;;;;3.60;100.00;98699.51;104831;1320;22219;-82
2022/11/26 08:56:44;;;;;;;90.00;81.00;;;;;;;3.65;100.00;98699.29;104900;1320;22170;-82
2022/11/26 08:59:12;;;;;;;91.80;82.10;;;;;;;3.69;100.00;98702.98;104815;1330;22224;-82
2022/11/26 09:01:40;;;;;;;101.90;90.80;;;;;;;3.73;100.00;98705.90;104721;1330;22192;-81
2022/11/26 09:04:08;;;;;;;103.60;90.80;;;;;;;3.75;100.00;98712.18;104592;1330;22226;-81
2022/11/26 09:06:36;;;;;;;95.40;85.20;;;;;;;3.74;100.00;98714.63;104954;1320;22241;-81
2022/11/26 09:09:11;;;;;;;83.30;75.20;;;;;;;3.70;100.00;98719.06;105226;1320;22200;-82
2022/11/26 09:11:50;;;;;;;75.70;68.60;;;;;;;3.66;100.00;98721.65;104909;1320;22101;-81
2022/11/26 09:14:23;;;;;;;80.50;73.10;;;;;;;3.62;100.00;98726.15;104833;1330;22283;-82
2022/11/26 09:16:53;;;;;;;80.60;73.00;;;;;;;3.62;100.00;98731.27;104883;1318;22181;-82
2022/11/26 09:19:22;;;;;;;73.60;66.90;;;;;;;3.66;100.00;98734.53;105237;1320;22273;-82
2022/11/26 09:21:51;;;;;;;78.90;71.10;;;;;;;3.62;100.00;98735.62;105231;1320;22198;-82
2022/11/26 09:24:20;;;;;;;75.00;65.50;;;;;;;3.62;100.00;98735.58;105243;1314;22984;-82
2022/11/26 09:26:48;;;;;;;78.00;70.50;;;;;;;3.65;100.00;98737.55;104823;1330;22094;-82
2022/11/26 09:29:19;;;;;;;77.20;69.90;;;;;;;3.70;100.00;98734.14;104968;1309;22096;-82
2022/11/26 09:31:48;;;;;;;83.70;75.00;;;;;;;3.72;100.00;98733.86;104831;1328;22222;-82
2022/11/26 09:34:36;;;;;;;90.80;81.50;;;;;;;3.73;100.00;98734.33;104713;1329;22224;-82
2022/11/26 09:37:05;;;;;;;82.10;74.40;;;;;;;3.72;100.00;98735.36;104968;1320;22272;-82
2022/11/26 09:39:33;;;;;;;80.40;72.80;;;;;;;3.72;100.00;98734.34;104682;1329;23007;-82
2022/11/26 09:42:06;;;;;;;76.00;69.00;;;;;;;3.73;100.00;98736.33;104879;1308;22798;-82
2022/11/26 09:44:38;;;;;;;73.70;67.20;;;;;;;3.74;100.00;98737.33;104726;1330;22213;-83
2022/11/26 09:47:13;;;;;;;84.80;76.10;;;;;;;3.72;100.00;98738.73;104588;1330;22216;-82
2022/11/26 09:50:03;;;;;;;85.90;77.40;;;;;;;3.68;100.00;98737.46;104799;1328;22206;-82
2022/11/26 09:52:49;;;;;;;88.30;78.70;;;;;;;3.70;100.00;98734.83;104850;1330;22210;-82
2022/11/26 09:55:30;;;;;;;84.10;75.80;;;;;;;3.77;100.00;98737.32;105003;1320;22182;-82
2022/11/26 09:57:58;;;;;;;95.00;81.80;;;;;;;3.80;100.00;98734.80;104913;1317;22195;-82
2022/11/26 10:00:37;;;;;;;95.70;82.90;;;;;;;3.86;100.00;98733.70;105352;1320;22199;-83
2022/11/26 10:03:20;;;;;;;95.50;84.70;;;;;;;3.93;100.00;98733.77;104642;1330;22271;-82
2022/11/26 10:06:24;;;;;;;89.70;80.60;;;;;;;3.99;100.00;98738.00;105255;1320;22182;-82
2022/11/26 10:09:12;;;;;;;68.50;62.00;;;;;;;3.97;100.00;98740.11;104836;1330;22180;-82
2022/11/26 10:12:19;;;;;;;67.20;60.70;;;;;;;3.96;100.00;98732.94;105134;1306;22644;-82
2022/11/26 10:15:03;;;;;;;70.40;63.80;;;;;;;3.96;100.00;98735.23;105267;1312;22939;-82
2022/11/26 10:17:46;;;;;;;78.20;70.90;;;;;;;4.03;100.00;98734.77;104833;1329;22229;-82
2022/11/26 10:20:29;;;;;;;70.90;64.30;;;;;;;4.10;100.00;98733.81;104756;1322;22215;-83
2022/11/26 10:23:09;;;;;;;71.20;64.00;;;;;;;4.13;100.00;98733.80;105256;1320;22277;-83
2022/11/26 10:25:44;;;;;;;77.30;69.90;;;;;;;4.12;100.00;98736.56;104812;1330;22121;-83
2022/11/26 10:28:20;;;;;;;79.00;71.40;;;;;;;4.12;100.00;98736.89;104836;1327;22183;-83
2022/11/26 10:30:55;;;;;;;75.80;68.90;;;;;;;4.14;100.00;98732.98;104708;1329;22210;-83
2022/11/26 10:33:36;;;;;;;75.80;68.90;;;;;;;4.18;100.00;98732.21;104841;1324;22226;-83
2022/11/26 10:36:08;;;;;;;75.00;68.20;;;;;;;4.18;100.00;98733.33;104696;1330;22322;-83
2022/11/26 10:38:36;;;;;;;68.50;62.40;;;;;;;4.21;100.00;98737.02;104719;1324;22178;-84
2022/11/26 10:41:04;;;;;;;75.30;68.10;;;;;;;4.26;100.00;98732.64;105283;1313;22273;-82
2022/11/26 10:43:32;;;;;;;76.30;69.40;;;;;;;4.30;100.00;98726.91;104822;1322;22156;-84
2022/11/26 10:46:00;;;;;;;82.30;74.70;;;;;;;4.37;100.00;98729.20;104821;1326;22177;-84
2022/11/26 10:48:32;;;;;;;87.30;78.70;;;;;;;4.39;100.00;98726.98;104820;1314;22944;-85
2022/11/26 10:51:05;;;;;;;85.20;77.40;;;;;;;4.39;100.00;98729.20;104850;1322;22924;-84
2022/11/26 10:53:52;;;;;;;86.30;78.00;;;;;;;4.40;100.00;98726.83;104837;1330;23035;-83
2022/11/26 10:56:39;;;;;;;86.70;78.70;;;;;;;4.41;100.00;98724.35;104830;1329;22216;-84
2022/11/26 10:59:29;;;;;;;85.40;77.20;;;;;;;4.44;100.00;98726.05;104830;1327;22171;-84
2022/11/26 11:02:04;;;;;;;91.60;82.80;;;;;;;4.47;100.00;98724.38;104757;1327;22276;-84
2022/11/26 11:04:39;;;;;;;83.50;76.00;;;;;;;4.51;100.00;98723.30;104592;1330;22163;-84
2022/11/26 11:07:28;;;;;;;80.40;72.60;;;;;;;4.51;100.00;98726.39;104954;1320;22377;-86
2022/11/26 11:10:03;;;;;;;85.10;76.90;;;;;;;4.51;100.00;98724.63;105292;1314;22988;-82
2022/11/26 11:12:32;;;;;;;77.50;70.30;;;;;;;4.55;100.00;98722.67;104945;1322;22163;-84
2022/11/26 11:15:19;;;;;;;87.50;79.00;;;;;;;4.56;100.00;98721.09;104840;1330;22128;-83
2022/11/26 11:18:00;;;;;;;106.20;94.80;;;;;;;4.55;100.00;98721.29;105265;1320;22178;-83
2022/11/26 11:20:31;;;;;;;90.80;81.60;;;;;;;4.51;100.00;98725.76;104847;1329;22145;-83
2022/11/26 11:23:08;;;;;;;85.70;77.30;;;;;;;4.50;100.00;98722.99;104819;1312;22276;-83
2022/11/26 11:25:40;;;;;;;88.70;80.20;;;;;;;4.51;100.00;98724.63;104788;1330;22211;-82
2022/11/26 11:28:20;;;;;;;89.70;80.70;;;;;;;4.53;100.00;98727.16;104717;1330;22260;-82